createdAt,value
2019-03-01T00:00:15.472Z,21.13
2019-03-01T00:02:46.459Z,20.10
2019-03-01T00:05:48.096Z,20.50
2019-03-01T00:08:18.831Z,19.70
2019-03-01T00:11:09.407Z,19.73
2019-03-01T00:13:58.182Z,20.48
2019-03-01T00:16:50.197Z,19.12
2019-03-01T00:19:43.670Z,18.15
2019-03-01T00:22:27.305Z,17.80
2019-03-01T00:25:02.237Z,16.00
2019-03-01T00:27:46.877Z,15.93
2019-03-01T00:30:52.909Z,16.67
2019-03-01T00:33:34.180Z,15.80
2019-03-01T00:36:32.164Z,15.43
2019-03-01T00:39:22.532Z,16.10
2019-03-01T00:42:10.078Z,14.73
2019-03-01T00:44:41.572Z,15.35
2019-03-01T00:47:12.703Z,17.70
2019-03-01T00:49:42.590Z,18.20
2019-03-01T00:52:12.097Z,19.65
2019-03-01T00:54:41.608Z,22.10
2019-03-01T00:57:11.036Z,23.05
2019-03-01T00:59:40.486Z,24.70
2019-03-01T01:02:09.913Z,24.26
2019-03-01T01:04:39.404Z,24.95
2019-03-01T01:07:08.768Z,23.02
2019-03-01T01:09:38.128Z,24.20
2019-03-01T01:12:07.634Z,25.52
2019-03-01T01:14:37.003Z,25.93
2019-03-01T01:17:06.360Z,27.65
2019-03-01T01:19:35.711Z,27.32
2019-03-01T01:22:05.338Z,27.00
2019-03-01T01:24:34.754Z,30.52
2019-03-01T01:27:04.189Z,30.12
2019-03-01T01:29:33.626Z,30.60
2019-03-01T01:32:03.036Z,30.48
2019-03-01T01:34:32.390Z,32.48
2019-03-01T01:37:01.770Z,32.65
2019-03-01T01:39:31.125Z,37.85
2019-03-01T01:42:00.623Z,38.63
2019-03-01T01:44:29.989Z,39.58
2019-03-01T01:46:59.344Z,41.88
2019-03-01T01:49:28.694Z,44.42
2019-03-01T01:51:58.057Z,45.63
2019-03-01T01:54:27.491Z,49.65
2019-03-01T01:56:56.987Z,54.80
2019-03-01T01:59:26.348Z,59.85
2019-03-01T02:01:55.789Z,63.25
2019-03-01T02:04:25.151Z,69.17
2019-03-01T02:06:55.685Z,71.67
2019-03-01T02:09:25.553Z,72.30
2019-03-01T02:11:55.455Z,73.55
2019-03-01T02:14:25.025Z,78.10
2019-03-01T02:16:54.448Z,78.78
2019-03-01T02:19:23.890Z,83.15
2019-03-01T02:21:53.239Z,86.90
2019-03-01T02:24:22.597Z,91.95
2019-03-01T02:26:56.229Z,91.35
2019-03-01T02:29:25.589Z,96.63
2019-03-01T02:31:55.122Z,100.38
2019-03-01T02:34:24.486Z,100.70
2019-03-01T02:36:53.875Z,101.33
2019-03-01T02:39:23.223Z,105.03
2019-03-01T02:41:52.597Z,104.87
2019-03-01T02:44:21.990Z,104.15
2019-03-01T02:46:51.359Z,98.97
2019-03-01T02:49:20.829Z,103.53
2019-03-01T02:51:50.344Z,101.97
2019-03-01T02:54:19.715Z,100.78
2019-03-01T02:56:49.086Z,102.02
2019-03-01T02:59:18.447Z,98.63
2019-03-01T03:01:47.931Z,96.53
2019-03-01T03:04:17.390Z,96.70
2019-03-01T03:06:51.278Z,94.03
2019-03-01T03:09:20.629Z,96.65
2019-03-01T03:11:50.011Z,92.97
2019-03-01T03:14:19.442Z,91.40
2019-03-01T03:16:48.823Z,89.70
2019-03-01T03:19:18.251Z,82.33
2019-03-01T03:21:47.637Z,79.03
2019-03-01T03:24:17.009Z,73.60
2019-03-01T03:26:48.492Z,66.95
2019-03-01T03:29:17.595Z,60.97
2019-03-01T03:31:47.036Z,53.50
2019-03-01T03:34:16.506Z,51.98
2019-03-01T03:36:45.933Z,45.67
2019-03-01T03:39:15.374Z,47.83
2019-03-01T03:41:44.824Z,45.20
2019-03-01T03:44:14.335Z,48.03
2019-03-01T03:46:44.812Z,46.90
2019-03-01T03:49:14.237Z,47.75
2019-03-01T03:51:56.358Z,51.68
2019-03-01T03:54:25.734Z,50.48
2019-03-01T03:56:55.108Z,56.25
2019-03-01T03:59:24.553Z,50.03
2019-03-01T04:01:54.121Z,58.58
2019-03-01T04:04:23.624Z,59.48
2019-03-01T04:06:53.073Z,63.25
2019-03-01T04:09:22.501Z,62.98
2019-03-01T04:11:51.887Z,61.65
2019-03-01T04:14:21.347Z,61.25
2019-03-01T04:16:50.739Z,61.85
2019-03-01T04:19:20.107Z,61.75
2019-03-01T04:21:49.465Z,66.37
2019-03-01T04:24:18.832Z,66.82
2019-03-01T04:26:48.280Z,67.10
2019-03-01T04:29:17.629Z,66.97
2019-03-01T04:31:46.993Z,65.55
2019-03-01T04:34:16.542Z,69.35
2019-03-01T04:36:45.939Z,70.00
2019-03-01T04:39:15.313Z,70.22
2019-03-01T04:41:44.776Z,74.03
2019-03-01T04:44:14.200Z,68.95
2019-03-01T04:46:43.573Z,73.75
2019-03-01T04:49:12.952Z,75.73
2019-03-01T04:51:42.305Z,76.25
2019-03-01T04:54:11.669Z,75.42
2019-03-01T04:56:41.044Z,71.92
2019-03-01T04:59:10.409Z,72.40
2019-03-01T05:01:39.821Z,72.65
2019-03-01T05:04:09.193Z,76.87
2019-03-01T05:06:38.570Z,70.42
2019-03-01T05:09:08.260Z,65.92
2019-03-01T05:11:37.743Z,70.30
2019-03-01T05:14:07.102Z,73.10
2019-03-01T05:16:36.488Z,62.90
2019-03-01T05:19:05.950Z,67.20
2019-03-01T05:21:35.333Z,65.80
2019-03-01T05:24:05.449Z,64.70
2019-03-01T05:26:34.874Z,66.20
2019-03-01T05:29:04.263Z,65.32
2019-03-01T05:31:33.621Z,66.92
2019-03-01T05:34:02.981Z,66.28
2019-03-01T05:36:32.428Z,63.20
2019-03-01T05:39:01.811Z,63.85
2019-03-01T05:41:32.833Z,66.57
2019-03-01T05:44:02.328Z,64.10
2019-03-01T05:46:31.768Z,62.10
2019-03-01T05:49:01.147Z,61.40
2019-03-01T05:51:30.569Z,61.65
2019-03-01T05:53:59.972Z,60.30
2019-03-01T05:56:29.339Z,60.38
2019-03-01T05:59:16.824Z,56.35
2019-03-01T06:01:58.108Z,60.08
2019-03-01T06:04:30.949Z,56.50
2019-03-01T06:07:21.653Z,60.52
2019-03-01T06:10:10.998Z,61.88
2019-03-01T06:12:52.640Z,70.80
2019-03-01T06:15:43.084Z,66.30
2019-03-01T06:18:32.334Z,73.30
2019-03-01T06:21:13.513Z,71.85
2019-03-01T06:24:03.785Z,77.00
2019-03-01T06:29:40.907Z,79.53
2019-03-01T06:32:35.849Z,84.37
2019-03-01T06:35:23.313Z,81.42
2019-03-01T06:38:47.101Z,87.97
2019-03-01T06:41:35.937Z,89.52
2019-03-01T06:44:36.617Z,89.85
2019-03-01T06:47:24.357Z,90.85
2019-03-01T08:16:33.056Z,124.10
2019-03-01T08:19:02.482Z,117.20
2019-03-01T08:21:31.843Z,116.15
2019-03-01T08:24:01.218Z,114.97
2019-03-01T08:26:30.699Z,112.75
2019-03-01T08:29:01.648Z,116.47
2019-03-01T08:31:31.012Z,114.20
2019-03-01T08:34:00.359Z,106.87
2019-03-01T08:36:29.718Z,95.38
2019-03-01T08:39:00.989Z,75.50
2019-03-01T08:41:31.234Z,47.65
2019-03-01T08:44:00.585Z,35.33
2019-03-01T08:46:30.007Z,33.05
2019-03-01T08:48:59.365Z,29.95
2019-03-01T08:51:29.103Z,23.27
2019-03-01T08:53:58.457Z,20.35
2019-03-01T08:56:27.812Z,16.07
2019-03-01T08:58:57.271Z,15.25
2019-03-01T09:01:26.759Z,15.48
2019-03-01T09:03:59.142Z,13.55
2019-03-01T09:06:29.630Z,15.32
2019-03-01T09:08:59.001Z,13.38
2019-03-01T09:11:30.503Z,14.05
2019-03-01T09:13:59.420Z,14.30
2019-03-01T09:16:28.845Z,14.70
2019-03-01T09:18:58.347Z,13.78
2019-03-01T09:21:28.209Z,15.10
2019-03-01T09:23:58.382Z,14.70
2019-03-01T09:26:28.965Z,17.05
2019-03-01T09:28:59.428Z,14.10
2019-03-01T09:31:28.837Z,15.53
2019-03-01T09:33:58.392Z,13.43
2019-03-01T09:36:29.473Z,14.05
2019-03-01T09:38:58.839Z,11.57
2019-03-01T09:41:28.281Z,12.40
2019-03-01T09:43:59.732Z,9.80
2019-03-01T09:46:30.413Z,10.80
2019-03-01T09:48:59.750Z,9.13
2019-03-01T09:51:29.109Z,8.30
2019-03-01T09:53:58.472Z,7.35
2019-03-01T09:56:27.867Z,8.55
2019-03-01T09:58:57.337Z,7.90
2019-03-01T10:01:26.851Z,8.45
2019-03-01T10:03:57.428Z,8.68
2019-03-01T10:06:26.861Z,8.43
2019-03-01T10:08:56.291Z,9.43
2019-03-01T10:11:25.719Z,9.08
2019-03-01T10:13:55.087Z,10.00
2019-03-01T10:16:24.568Z,9.55
2019-03-01T10:18:53.969Z,10.90
2019-03-01T10:21:23.564Z,12.20
2019-03-01T10:23:52.921Z,11.25
2019-03-01T10:26:22.331Z,12.78
2019-03-01T10:28:52.198Z,13.08
2019-03-01T10:31:21.683Z,12.73
2019-03-01T10:33:51.022Z,12.65
2019-03-01T10:36:20.414Z,13.85
2019-03-01T10:38:49.799Z,14.58
2019-03-01T10:41:19.628Z,12.78
2019-03-01T10:43:49.049Z,13.45
2019-03-01T10:46:18.431Z,12.98
2019-03-01T10:48:47.849Z,13.10
2019-03-01T10:51:17.212Z,13.65
2019-03-01T10:53:47.908Z,14.38
2019-03-01T10:56:17.497Z,12.67
2019-03-01T10:58:46.892Z,14.07
2019-03-01T11:01:16.404Z,13.22
2019-03-01T11:03:49.041Z,13.50
2019-03-01T11:06:16.918Z,13.70
2019-03-01T11:08:46.428Z,13.05
2019-03-01T11:11:15.787Z,14.23
2019-03-01T11:13:45.152Z,13.85
2019-03-01T11:16:14.508Z,12.10
2019-03-01T11:18:43.900Z,12.73
2019-03-01T11:21:13.607Z,12.37
2019-03-01T11:23:43.306Z,11.93
2019-03-01T11:26:12.698Z,11.00
2019-03-01T11:28:42.045Z,10.72
2019-03-01T11:31:11.415Z,10.43
2019-03-01T11:33:40.948Z,11.00
2019-03-01T11:36:10.530Z,11.10
2019-03-01T11:38:39.903Z,8.95
2019-03-01T11:41:09.372Z,9.25
2019-03-01T11:43:38.808Z,7.60
2019-03-01T11:46:08.237Z,6.60
2019-03-01T11:48:37.681Z,7.00
2019-03-01T11:51:07.191Z,5.47
2019-03-01T11:53:36.676Z,5.12
2019-03-01T11:56:06.699Z,5.05
2019-03-01T11:58:36.174Z,4.92
2019-03-01T12:01:06.669Z,4.72
2019-03-01T12:03:36.105Z,3.62
2019-03-01T12:06:06.197Z,3.80
2019-03-01T12:08:35.705Z,2.80
2019-03-01T12:11:05.898Z,3.98
2019-03-01T12:13:36.438Z,2.70
2019-03-01T12:16:08.509Z,2.52
2019-03-01T12:18:37.937Z,2.40
2019-03-01T12:21:07.383Z,2.50
2019-03-01T12:23:38.233Z,3.02
2019-03-01T12:26:07.717Z,3.00
2019-03-01T12:28:37.085Z,2.83
2019-03-01T12:31:06.433Z,2.52
2019-03-01T12:33:35.830Z,2.20
2019-03-01T12:36:06.041Z,1.50
2019-03-01T12:38:35.491Z,1.57
2019-03-01T12:41:05.288Z,1.90
2019-03-01T12:43:34.661Z,1.37
2019-03-01T12:46:04.088Z,1.20
2019-03-01T12:48:33.513Z,1.17
2019-03-01T12:51:02.867Z,1.22
2019-03-01T12:53:34.198Z,1.10
2019-03-01T12:56:03.662Z,1.00
2019-03-01T12:58:33.096Z,1.47
2019-03-01T13:01:02.535Z,1.10
2019-03-01T13:03:32.025Z,1.42
2019-03-01T13:06:03.776Z,1.07
2019-03-01T13:08:32.587Z,0.90
2019-03-01T13:11:02.032Z,1.00
2019-03-01T13:13:34.586Z,0.68
2019-03-01T13:16:02.560Z,1.20
2019-03-01T13:18:31.974Z,1.17
2019-03-01T13:21:01.326Z,1.15
2019-03-01T13:23:30.726Z,0.82
2019-03-01T13:26:02.870Z,1.17
2019-03-01T13:28:31.602Z,0.70
2019-03-01T13:31:01.012Z,0.95
2019-03-01T13:33:30.370Z,1.02
2019-03-01T13:36:03.651Z,1.00
2019-03-01T13:38:33.899Z,0.75
2019-03-01T13:41:02.988Z,0.80
2019-03-01T13:43:33.251Z,0.72
2019-03-01T13:46:02.766Z,0.82
2019-03-01T13:48:32.206Z,0.93
2019-03-01T13:51:01.534Z,1.00
2019-03-01T13:53:33.328Z,0.90
2019-03-01T13:56:02.417Z,1.13
2019-03-01T13:58:31.981Z,1.05
2019-03-01T14:01:02.479Z,0.78
2019-03-01T14:03:32.389Z,0.90
2019-03-01T14:06:02.274Z,0.95
2019-03-01T14:08:31.804Z,0.88
2019-03-01T14:11:01.234Z,0.90
2019-03-01T14:13:30.617Z,0.78
2019-03-01T14:15:59.972Z,0.95
2019-03-01T14:18:29.355Z,1.00
2019-03-01T14:20:59.149Z,1.10
2019-03-01T14:23:28.646Z,0.70
2019-03-01T14:25:57.999Z,1.22
2019-03-01T14:28:27.381Z,0.80
2019-03-01T14:30:56.787Z,1.67
2019-03-01T14:33:26.252Z,1.05
2019-03-01T14:35:55.618Z,1.02
2019-03-01T14:38:26.709Z,0.88
2019-03-01T14:40:59.421Z,1.05
2019-03-01T14:43:27.267Z,1.27
2019-03-01T14:45:56.859Z,1.50
2019-03-01T14:48:26.261Z,1.10
2019-03-01T14:50:55.693Z,1.30
2019-03-01T14:53:25.139Z,1.10
2019-03-01T14:55:58.950Z,1.50
2019-03-01T14:58:36.569Z,1.30
2019-03-01T15:01:17.418Z,0.95
2019-03-01T15:03:49.730Z,1.60
2019-03-01T15:06:19.142Z,1.03
2019-03-01T15:08:49.203Z,1.20
2019-03-01T15:11:19.312Z,1.40
2019-03-01T15:13:48.785Z,1.20
2019-03-01T15:16:18.524Z,1.40
2019-03-01T15:18:48.084Z,1.17
2019-03-01T15:21:17.554Z,1.45
2019-03-01T15:23:46.901Z,1.52
2019-03-01T15:26:16.334Z,1.52
2019-03-01T15:28:55.436Z,1.22
2019-03-01T15:31:24.345Z,1.55
2019-03-01T15:33:53.756Z,1.52
2019-03-01T15:36:23.184Z,1.20
2019-03-01T15:38:53.094Z,2.02
2019-03-01T15:41:23.628Z,0.90
2019-03-01T15:43:54.555Z,1.20
2019-03-01T15:46:23.941Z,1.47
2019-03-01T15:48:53.298Z,1.52
2019-03-01T15:51:22.755Z,1.90
2019-03-01T15:53:52.204Z,1.50
2019-03-01T15:56:22.151Z,1.27
2019-03-01T15:58:51.850Z,1.52
2019-03-01T16:01:21.283Z,1.03
2019-03-01T16:03:50.724Z,1.30
2019-03-01T16:06:22.240Z,1.95
2019-03-01T16:08:51.372Z,1.27
2019-03-01T16:11:20.872Z,1.55
2019-03-01T16:13:50.379Z,1.20
2019-03-01T16:16:19.887Z,1.15
2019-03-01T16:18:49.389Z,1.12
2019-03-01T16:21:18.890Z,1.37
2019-03-01T16:23:48.408Z,1.07
2019-03-01T16:26:18.890Z,0.80
2019-03-01T16:28:48.342Z,1.07
2019-03-01T16:31:17.760Z,0.80
2019-03-01T16:33:47.346Z,1.07
2019-03-01T16:36:18.420Z,1.17
2019-03-01T16:38:48.899Z,0.97
2019-03-01T16:41:18.495Z,1.27
2019-03-01T16:43:47.855Z,1.05
2019-03-01T16:46:17.295Z,1.32
2019-03-01T16:48:48.787Z,1.27
2019-03-01T16:51:21.422Z,1.50
2019-03-01T16:53:54.907Z,1.85
2019-03-01T16:56:26.526Z,1.98
2019-03-01T16:58:55.745Z,1.32
2019-03-01T17:01:26.054Z,1.40
2019-03-01T17:03:56.186Z,1.15
2019-03-01T17:06:25.680Z,1.40
2019-03-01T17:08:55.025Z,2.20
2019-03-01T17:11:24.389Z,1.80
2019-03-01T17:13:53.745Z,1.77
2019-03-01T17:16:23.746Z,2.02
2019-03-01T17:18:54.077Z,2.30
2019-03-01T17:21:23.467Z,2.47
2019-03-01T17:23:54.650Z,1.82
2019-03-01T17:26:26.243Z,3.17
2019-03-01T17:28:59.752Z,2.13
2019-03-01T17:31:27.907Z,2.35
2019-03-01T17:34:00.221Z,2.70
2019-03-01T17:36:29.656Z,3.05
2019-03-01T17:38:59.011Z,2.90
2019-03-01T17:41:28.560Z,3.20
2019-03-01T17:43:57.994Z,2.67
2019-03-01T17:46:29.844Z,3.35
2019-03-01T17:48:58.755Z,3.58
2019-03-01T17:51:28.874Z,3.12
2019-03-01T17:53:58.432Z,2.80
2019-03-01T17:56:27.848Z,2.67
2019-03-01T17:58:57.214Z,3.02
2019-03-01T18:01:26.574Z,3.45
2019-03-01T18:03:57.983Z,2.67
2019-03-01T18:06:27.220Z,3.17
2019-03-01T18:08:56.730Z,3.50
2019-03-01T18:11:26.179Z,3.75
2019-03-01T18:13:56.923Z,3.83
2019-03-01T18:16:26.649Z,3.27
2019-03-01T18:18:57.080Z,3.67
2019-03-01T18:21:26.587Z,4.30
2019-03-01T18:23:56.075Z,4.70
2019-03-01T18:26:25.486Z,5.62
2019-03-01T18:28:54.874Z,4.30
2019-03-01T18:31:24.398Z,4.62
2019-03-01T18:33:57.051Z,4.10
2019-03-01T18:36:28.224Z,3.98
2019-03-01T18:38:55.915Z,4.12
2019-03-01T18:41:27.470Z,3.83
2019-03-01T18:43:56.475Z,2.87
2019-03-01T18:46:26.068Z,3.72
2019-03-01T18:48:55.555Z,3.80
2019-03-01T18:51:24.979Z,4.10
2019-03-01T18:53:54.842Z,3.60
2019-03-01T18:56:25.061Z,3.90
2019-03-01T18:58:55.404Z,3.40
2019-03-01T19:01:26.023Z,3.80
2019-03-01T19:03:55.469Z,3.75
2019-03-01T19:06:24.942Z,4.12
2019-03-01T19:08:54.356Z,4.42
2019-03-01T19:11:24.393Z,5.45
2019-03-01T19:13:58.593Z,5.08
2019-03-01T19:16:28.538Z,4.87
2019-03-01T19:18:58.091Z,4.55
2019-03-01T19:21:27.591Z,4.45
2019-03-01T19:23:57.091Z,4.35
2019-03-01T19:26:26.621Z,4.25
2019-03-01T19:28:59.072Z,4.37
2019-03-01T19:31:27.090Z,4.22
2019-03-01T19:33:56.493Z,4.22
2019-03-01T19:36:29.941Z,4.53
2019-03-01T19:39:08.219Z,5.95
2019-03-01T19:41:40.006Z,4.12
2019-03-01T19:44:15.372Z,4.60
2019-03-01T19:46:47.617Z,4.17
2019-03-01T19:49:19.818Z,4.10
2019-03-01T19:51:56.308Z,4.90
2019-03-01T19:54:27.285Z,5.25
2019-03-01T19:56:57.741Z,5.40
2019-03-01T19:59:27.747Z,5.50
2019-03-01T20:01:57.158Z,4.85
2019-03-01T20:04:26.606Z,5.47
2019-03-01T20:06:57.801Z,4.97
2019-03-01T20:09:27.394Z,5.47
2019-03-01T20:11:59.223Z,4.72
2019-03-01T20:14:30.380Z,5.10
2019-03-01T20:17:00.288Z,5.10
2019-03-01T20:19:29.877Z,5.50
2019-03-01T20:21:59.344Z,5.08
2019-03-01T20:24:33.348Z,5.45
2019-03-01T20:27:03.073Z,5.92
2019-03-01T20:29:33.357Z,5.20
2019-03-01T20:32:04.388Z,6.47
2019-03-01T20:34:37.951Z,6.50
2019-03-01T20:37:07.039Z,6.33
2019-03-01T20:39:38.231Z,7.10
2019-03-01T20:42:09.915Z,6.25
2019-03-01T20:44:39.126Z,6.62
2019-03-01T20:47:11.286Z,5.70
2019-03-01T20:49:40.834Z,6.30
2019-03-01T20:52:11.818Z,6.28
2019-03-01T20:54:44.424Z,5.33
2019-03-01T20:57:14.029Z,5.50
2019-03-01T20:59:46.818Z,6.37
2019-03-01T21:02:16.384Z,6.33
2019-03-01T21:04:53.235Z,6.00
2019-03-01T21:09:47.782Z,5.87
2019-03-01T21:12:17.237Z,6.10
2019-03-01T21:14:46.737Z,5.85
2019-03-01T21:17:20.261Z,4.93
2019-03-01T21:19:50.490Z,4.45
2019-03-01T21:22:21.653Z,5.37
2019-03-01T21:24:52.805Z,5.42
2019-03-01T21:27:22.599Z,6.07
2019-03-01T21:29:53.235Z,5.90
2019-03-01T21:32:22.620Z,6.17
2019-03-01T21:34:52.198Z,6.60
2019-03-01T21:37:23.620Z,6.35
2019-03-01T21:39:55.630Z,6.37
2019-03-01T21:42:25.257Z,6.85
2019-03-01T21:44:54.677Z,7.67
2019-03-01T21:47:24.153Z,8.03
2019-03-01T21:49:53.572Z,7.65
2019-03-01T21:52:22.933Z,7.93
2019-03-01T21:54:53.281Z,6.83
2019-03-01T21:57:22.803Z,6.70
2019-03-01T21:59:53.379Z,6.55
2019-03-01T22:02:22.958Z,6.30
2019-03-01T22:04:55.110Z,7.75
2019-03-01T22:07:24.543Z,7.05
2019-03-01T22:09:56.808Z,7.55
2019-03-01T22:12:25.691Z,8.10
2019-03-01T22:14:55.137Z,8.73
2019-03-01T22:17:24.497Z,8.23
2019-03-01T22:19:53.862Z,8.68
2019-03-01T22:22:23.231Z,9.05
2019-03-01T22:24:52.750Z,8.93
2019-03-01T22:27:25.271Z,8.63
2019-03-01T22:29:53.234Z,9.10
2019-03-01T22:32:22.648Z,9.98
2019-03-01T22:34:52.086Z,10.18
2019-03-01T22:37:24.808Z,9.18
2019-03-01T22:39:52.549Z,9.93
2019-03-01T22:42:21.971Z,8.88
2019-03-01T22:44:51.389Z,12.23
2019-03-01T22:47:20.762Z,12.05
2019-03-01T22:49:50.099Z,12.07
2019-03-01T22:52:19.529Z,11.37
2019-03-01T22:54:48.915Z,11.30
2019-03-01T22:57:22.433Z,12.23
2019-03-01T22:59:49.332Z,11.13
2019-03-01T23:02:20.110Z,12.10
2019-03-01T23:04:49.678Z,9.93
2019-03-01T23:07:19.053Z,10.08
2019-03-01T23:09:48.478Z,9.80
2019-03-01T23:12:19.526Z,9.20
2019-03-01T23:14:48.959Z,9.00
2019-03-01T23:17:18.336Z,9.60
2019-03-01T23:19:51.317Z,8.78
2019-03-01T23:22:18.734Z,9.58
2019-03-01T23:24:49.478Z,9.13
2019-03-01T23:27:18.988Z,8.90
2019-03-01T23:29:50.927Z,10.10
2019-03-01T23:32:19.537Z,8.73
2019-03-01T23:34:49.029Z,9.20
2019-03-01T23:37:18.453Z,11.00
2019-03-01T23:39:47.803Z,10.48
2019-03-01T23:42:17.399Z,11.53
2019-03-01T23:44:48.242Z,11.57
2019-03-01T23:47:19.203Z,12.78
2019-03-01T23:49:49.020Z,11.30
2019-03-01T23:52:19.571Z,13.08
2019-03-01T23:54:49.500Z,11.70
2019-03-01T23:57:18.993Z,12.13
2019-03-01T23:59:48.424Z,14.20
